Airfield :
LOGIN :

Register | Disclaimer

   EN    FR    IT 

 










Legend :    VFR   Marginal VFR   IFR   Intensive IFR   Very Intensive IFR
Visi :
Ceiling :
>= 8 km
>= 3000ft
5 to 8 km
1000 to 3000 ft
1500m to 5 km
500 to 1000 ft
800 to 1500m
200 to 500 ft
< 800m
< 200 ft
Symbols :   Thunderstorms  Fog  Heavy snow  Heavy precipitations  Wind > 20 kt
SIGMETs :     Misc.  Thunderstorms  Icing  Turbulence  Mountain Waves  Volcanic Ashes







- Airport Elevation : 14 ft
- IATA code : BRE


EDDW - Bremen Neuenland

CURRENT METAR :
  • 220650Z VRB02KT 2500 BR FEW008 07/07 Q1033 BECMG 3000

EXPIRED METARs :
  • 220620Z 09002KT 0700 R27/0800VP2000U FG BKN008 05/05 Q1033 BECMG 1200 BR
  • 220550Z VRB02KT 1200 R27/1900D BR BKN008 06/06 Q1033 TEMPO 0500 FG
  • 220520Z 08003KT 1200 0500W R27/1100VP2000D BCFG FEW006 05/05 Q1032 TEMPO 0500 FG
  • 220450Z 13002KT 1300 0600W R27/0325V0500N BCFG SCT006 06/05 Q1032 TEMPO 0500 FG
  • 220420Z 14001KT 1800 0800W R27/0400V0750D BCFG SCT006 07/07 Q1032 TEMPO 0500 FG
  • 220350Z 30001KT 3200 BR BKN007 07/07 Q1032 TEMPO 2500

TAF TAF EDDW
Valid from the 22 at 06:00 until the 23 at 06:00 UTC


220500Z 2206/2306 VRB02KT 2000 BR SCT010
TEMPO 2206/2208 0200 FG BKN003
BECMG 2208/2210 15005KT 9999
BECMG 2221/2224 VRB02KT
BECMG 2303/2306 26005KT
TEMPO 2303/2306 2000 BR
No reported NOTAMs for that airfield.



MET'MAP, your aeronautical weather chart ! - Copyright ORBIFLY December 2007 - Disclaimer

ORBIFLY MET'MAP TEAM :

Programming & Development : Alexandra Zaïnal
Concept & Development : Baudouin d'Aumeries
Co-Development & Prog : Marc-Olivier Méhu
Technical & hardware support : Manuel Goepfert

Contact : metmap@orbifly.com




SOURCES & CREDITS :

   NOAA